createdAt,value
2023-05-20T00:00:20.576Z,4.25
2023-05-20T00:01:22.826Z,4.60
2023-05-20T00:02:25.128Z,4.22
2023-05-20T00:03:27.560Z,4.13
2023-05-20T00:04:29.886Z,3.90
2023-05-20T00:05:32.308Z,4.40
2023-05-20T00:06:35.058Z,5.38
2023-05-20T00:07:37.440Z,4.70
2023-05-20T00:08:39.694Z,5.03
2023-05-20T00:09:42.047Z,4.45
2023-05-20T00:10:44.277Z,4.07
2023-05-20T00:11:46.968Z,4.40
2023-05-20T00:12:49.340Z,4.45
2023-05-20T00:13:51.660Z,3.92
2023-05-20T00:14:55.921Z,3.95
2023-05-20T00:15:58.665Z,4.30
2023-05-20T00:17:01.007Z,3.88
2023-05-20T00:18:04.076Z,4.18
2023-05-20T00:19:06.476Z,4.07
2023-05-20T00:20:09.009Z,4.00
2023-05-20T00:21:11.234Z,3.83
2023-05-20T00:22:13.862Z,4.63
2023-05-20T00:23:16.336Z,4.30
2023-05-20T00:24:18.563Z,4.00
2023-05-20T00:25:20.782Z,3.58
2023-05-20T00:26:23.004Z,3.78
2023-05-20T00:27:29.853Z,3.88
2023-05-20T00:28:32.089Z,3.80
2023-05-20T00:29:34.630Z,3.85
2023-05-20T00:30:40.234Z,3.30
2023-05-20T00:31:42.915Z,3.40
2023-05-20T00:32:45.221Z,3.25
2023-05-20T00:33:47.557Z,3.60
2023-05-20T00:35:00.006Z,3.65
2023-05-20T00:37:04.478Z,3.30
2023-05-20T00:38:06.762Z,3.55
2023-05-20T00:39:08.969Z,3.50
2023-05-20T00:40:13.069Z,3.35
2023-05-20T00:41:17.180Z,3.30
2023-05-20T00:42:21.152Z,3.60
2023-05-20T00:43:25.284Z,3.20
2023-05-20T00:44:27.584Z,3.20
2023-05-20T00:45:31.505Z,3.25
2023-05-20T00:46:34.293Z,3.25
2023-05-20T00:47:37.202Z,3.25
2023-05-20T00:48:43.916Z,3.15
2023-05-20T00:49:49.628Z,3.47
2023-05-20T00:50:54.013Z,3.83
2023-05-20T00:51:56.574Z,3.22
2023-05-20T00:52:59.651Z,3.00
2023-05-20T00:54:02.144Z,3.20
2023-05-20T00:55:04.777Z,3.38
2023-05-20T00:56:08.445Z,3.22
2023-05-20T00:57:11.367Z,3.40
2023-05-20T00:58:14.200Z,3.25
2023-05-20T00:59:16.513Z,3.80
2023-05-20T01:00:18.875Z,3.47
2023-05-20T01:01:21.136Z,3.03
2023-05-20T01:02:24.005Z,3.38
2023-05-20T01:03:27.302Z,3.47
2023-05-20T01:04:30.666Z,3.17
2023-05-20T01:05:33.212Z,3.60
2023-05-20T01:06:38.049Z,4.05
2023-05-20T01:07:41.021Z,3.63
2023-05-20T01:08:43.348Z,3.17
2023-05-20T01:09:45.838Z,3.55
2023-05-20T01:10:54.485Z,3.20
2023-05-20T01:12:02.665Z,3.67
2023-05-20T01:13:11.426Z,3.65
2023-05-20T01:14:18.081Z,3.45
2023-05-20T01:15:22.470Z,3.17
2023-05-20T01:16:25.222Z,3.30
2023-05-20T01:17:32.885Z,3.33
2023-05-20T01:18:39.271Z,3.40
2023-05-20T01:19:46.325Z,3.35
2023-05-20T01:20:51.033Z,3.40
2023-05-20T01:21:54.081Z,3.40
2023-05-20T01:22:57.369Z,3.30
2023-05-20T01:24:01.698Z,3.33
2023-05-20T01:25:05.282Z,3.40
2023-05-20T01:26:08.213Z,3.80
2023-05-20T01:27:13.785Z,3.55
2023-05-20T01:28:18.117Z,3.58
2023-05-20T01:29:20.500Z,3.17
2023-05-20T01:30:27.344Z,3.60
2023-05-20T01:31:33.739Z,4.10
2023-05-20T01:32:39.199Z,3.47
2023-05-20T01:33:43.858Z,4.10
2023-05-20T01:34:49.748Z,4.07
2023-05-20T01:35:52.202Z,3.70
2023-05-20T01:36:55.632Z,3.67
2023-05-20T01:37:59.028Z,4.53
2023-05-20T01:39:03.017Z,4.70
2023-05-20T01:40:14.053Z,4.63
2023-05-20T01:41:16.985Z,3.53
2023-05-20T01:42:20.104Z,3.30
2023-05-20T01:43:24.947Z,3.92
2023-05-20T01:44:27.439Z,3.47
2023-05-20T01:45:29.696Z,3.28
2023-05-20T01:46:34.586Z,4.13
2023-05-20T01:47:36.875Z,3.20
2023-05-20T01:48:39.205Z,3.72
2023-05-20T01:49:41.629Z,3.80
2023-05-20T01:50:43.871Z,3.30
2023-05-20T01:51:46.383Z,3.15
2023-05-20T01:52:48.680Z,3.22
2023-05-20T01:53:51.008Z,3.40
2023-05-20T01:54:53.305Z,3.33
2023-05-20T01:55:55.520Z,3.17
2023-05-20T01:56:58.017Z,3.20
2023-05-20T01:58:00.413Z,3.47
2023-05-20T01:59:02.718Z,3.42
2023-05-20T02:02:09.095Z,4.00
2023-05-20T02:03:11.468Z,4.20
2023-05-20T02:04:14.681Z,4.07
2023-05-20T02:05:17.165Z,4.25
2023-05-20T02:06:19.430Z,3.75
2023-05-20T02:07:21.737Z,3.90
2023-05-20T02:08:24.003Z,3.13
2023-05-20T02:09:26.413Z,3.95
2023-05-20T02:10:28.704Z,3.45
2023-05-20T02:11:31.271Z,3.70
2023-05-20T02:12:33.594Z,3.67
2023-05-20T02:13:35.977Z,3.80
2023-05-20T02:14:38.295Z,3.92
2023-05-20T02:15:43.293Z,3.60
2023-05-20T02:16:46.778Z,3.33
2023-05-20T02:17:49.356Z,4.13
2023-05-20T02:18:52.995Z,3.63
2023-05-20T02:19:55.350Z,3.45
2023-05-20T02:21:02.324Z,3.90
2023-05-20T02:22:04.831Z,3.55
2023-05-20T02:23:08.549Z,3.42
2023-05-20T02:24:12.399Z,3.72
2023-05-20T02:25:14.920Z,3.80
2023-05-20T02:26:20.777Z,3.22
2023-05-20T02:27:23.315Z,3.72
2023-05-20T02:28:25.878Z,3.47
2023-05-20T02:29:28.185Z,3.60
2023-05-20T02:30:30.581Z,3.80
2023-05-20T02:31:32.876Z,3.80
2023-05-20T02:32:35.118Z,3.65
2023-05-20T02:33:37.626Z,3.45
2023-05-20T02:34:39.933Z,3.70
2023-05-20T02:35:42.434Z,3.70
2023-05-20T02:36:44.652Z,3.53
2023-05-20T02:37:48.255Z,3.58
2023-05-20T02:38:51.331Z,3.45
2023-05-20T02:39:53.560Z,3.40
2023-05-20T02:40:56.729Z,4.00
2023-05-20T02:41:58.948Z,3.80
2023-05-20T02:43:04.250Z,3.67
2023-05-20T02:44:06.638Z,3.53
2023-05-20T02:45:09.319Z,3.35
2023-05-20T02:46:11.645Z,3.60
2023-05-20T02:47:15.654Z,3.53
2023-05-20T02:48:18.026Z,3.80
2023-05-20T02:49:20.321Z,3.42
2023-05-20T02:50:22.716Z,3.85
2023-05-20T02:51:25.674Z,3.78
2023-05-20T02:52:28.439Z,3.10
2023-05-20T02:53:30.779Z,3.35
2023-05-20T02:54:33.157Z,3.58
2023-05-20T02:55:36.450Z,3.28
2023-05-20T02:56:38.797Z,3.83
2023-05-20T02:57:41.078Z,3.75
2023-05-20T02:58:44.955Z,3.53
2023-05-20T02:59:47.818Z,3.60
2023-05-20T03:00:50.003Z,3.53
2023-05-20T03:01:52.487Z,3.45
2023-05-20T03:02:55.135Z,3.20
2023-05-20T03:03:57.747Z,3.50
2023-05-20T03:05:02.544Z,3.67
2023-05-20T03:06:05.419Z,3.72
2023-05-20T03:07:08.890Z,3.75
2023-05-20T03:08:11.704Z,3.50
2023-05-20T03:09:14.420Z,3.38
2023-05-20T03:10:16.927Z,3.85
2023-05-20T03:11:19.851Z,3.20
2023-05-20T03:12:26.109Z,3.85
2023-05-20T03:13:28.364Z,3.83
2023-05-20T03:14:30.734Z,4.03
2023-05-20T03:15:33.286Z,3.60
2023-05-20T03:16:36.169Z,3.60
2023-05-20T03:17:38.850Z,4.03
2023-05-20T03:18:41.946Z,3.22
2023-05-20T03:19:44.451Z,3.80
2023-05-20T03:20:47.320Z,3.80
2023-05-20T03:21:50.650Z,3.63
2023-05-20T03:22:53.061Z,3.38
2023-05-20T03:23:55.888Z,3.65
2023-05-20T03:25:00.431Z,3.65
2023-05-20T03:26:03.289Z,3.80
2023-05-20T03:27:05.873Z,3.83
2023-05-20T03:28:09.652Z,3.88
2023-05-20T03:29:13.496Z,3.45
2023-05-20T03:30:15.964Z,3.78
2023-05-20T03:31:19.163Z,3.60
2023-05-20T03:32:21.838Z,3.10
2023-05-20T03:33:26.202Z,3.40
2023-05-20T03:34:30.153Z,3.80
2023-05-20T03:35:32.746Z,3.20
2023-05-20T03:36:35.556Z,3.58
2023-05-20T03:37:41.358Z,3.78
2023-05-20T03:38:43.932Z,4.15
2023-05-20T03:39:46.219Z,4.13
2023-05-20T03:40:49.068Z,4.53
2023-05-20T03:41:52.182Z,3.72
2023-05-20T03:42:54.509Z,3.53
2023-05-20T03:43:57.810Z,3.70
2023-05-20T03:45:01.161Z,4.38
2023-05-20T03:46:07.547Z,3.55
2023-05-20T03:47:11.470Z,4.20
2023-05-20T03:48:14.833Z,3.97
2023-05-20T03:49:18.761Z,3.72
2023-05-20T03:50:21.473Z,4.22
2023-05-20T03:51:24.235Z,4.80
2023-05-20T03:52:27.252Z,3.65
2023-05-20T03:53:29.583Z,3.80
2023-05-20T03:54:31.861Z,3.85
2023-05-20T03:55:35.224Z,3.83
2023-05-20T03:56:38.070Z,4.05
2023-05-20T03:57:40.612Z,3.83
2023-05-20T03:58:43.134Z,4.25
2023-05-20T03:59:45.515Z,4.03
2023-05-20T04:00:48.932Z,3.70
2023-05-20T04:01:51.397Z,4.10
2023-05-20T04:02:53.817Z,3.85
2023-05-20T04:03:57.348Z,4.20
2023-05-20T04:05:02.336Z,4.10
2023-05-20T04:06:05.059Z,3.97
2023-05-20T04:07:07.692Z,3.70
2023-05-20T04:08:09.922Z,3.83
2023-05-20T04:09:12.506Z,4.47
2023-05-20T04:10:14.916Z,3.97
2023-05-20T04:11:17.260Z,3.75
2023-05-20T04:12:20.789Z,3.85
2023-05-20T04:13:25.351Z,3.90
2023-05-20T04:14:27.672Z,4.07
2023-05-20T04:15:30.710Z,3.45
2023-05-20T04:16:34.388Z,4.00
2023-05-20T04:17:38.467Z,3.80
2023-05-20T04:18:41.141Z,3.67
2023-05-20T04:19:45.143Z,3.78
2023-05-20T04:20:47.968Z,3.97
2023-05-20T04:21:51.081Z,3.53
2023-05-20T04:22:54.145Z,4.43
2023-05-20T04:23:57.206Z,4.57
2023-05-20T04:24:59.440Z,3.97
2023-05-20T04:26:02.514Z,4.15
2023-05-20T04:27:07.194Z,3.65
2023-05-20T04:28:10.655Z,4.07
2023-05-20T04:29:13.362Z,4.13
2023-05-20T04:30:17.945Z,4.05
2023-05-20T04:31:21.227Z,3.55
2023-05-20T04:32:23.574Z,3.65
2023-05-20T04:33:27.140Z,3.53
2023-05-20T04:34:29.904Z,3.88
2023-05-20T04:35:32.375Z,3.38
2023-05-20T04:36:39.490Z,3.78
2023-05-20T04:37:42.297Z,4.13
2023-05-20T04:38:45.083Z,3.50
2023-05-20T04:39:49.856Z,3.80
2023-05-20T04:40:52.992Z,3.75
2023-05-20T04:41:55.336Z,4.22
2023-05-20T04:43:00.061Z,3.70
2023-05-20T04:44:03.765Z,4.10
2023-05-20T04:45:08.670Z,3.45
2023-05-20T04:46:11.900Z,3.55
2023-05-20T04:47:15.604Z,3.83
2023-05-20T04:48:18.022Z,3.88
2023-05-20T04:49:20.541Z,3.72
2023-05-20T04:50:22.823Z,3.88
2023-05-20T04:51:25.152Z,4.03
2023-05-20T04:52:27.572Z,3.65
2023-05-20T04:53:30.680Z,3.75
2023-05-20T04:54:33.031Z,3.88
2023-05-20T04:55:37.273Z,3.53
2023-05-20T04:56:40.307Z,3.90
2023-05-20T04:57:43.454Z,3.55
2023-05-20T04:58:45.959Z,3.83
2023-05-20T04:59:48.319Z,4.07
2023-05-20T05:00:52.170Z,3.58
2023-05-20T05:01:54.829Z,4.18
2023-05-20T05:02:58.043Z,3.72
2023-05-20T05:04:00.455Z,3.75
2023-05-20T05:05:03.283Z,3.58
2023-05-20T05:06:05.707Z,4.00
2023-05-20T05:07:07.979Z,3.45
2023-05-20T05:08:13.806Z,3.45
2023-05-20T05:09:22.813Z,4.03
2023-05-20T05:10:25.144Z,3.92
2023-05-20T05:11:27.408Z,3.33
2023-05-20T05:12:29.808Z,3.45
2023-05-20T05:13:32.094Z,3.75
2023-05-20T05:14:34.324Z,3.72
2023-05-20T05:15:36.912Z,3.85
2023-05-20T05:16:39.378Z,3.80
2023-05-20T05:17:42.183Z,3.60
2023-05-20T05:18:44.522Z,3.47
2023-05-20T05:19:46.817Z,4.13
2023-05-20T05:20:49.073Z,3.83
2023-05-20T05:21:51.385Z,3.60
2023-05-20T05:22:53.595Z,3.50
2023-05-20T05:23:58.192Z,3.70
2023-05-20T05:25:00.932Z,3.50
2023-05-20T05:26:03.272Z,3.90
2023-05-20T05:27:05.657Z,4.35
2023-05-20T05:28:07.934Z,4.20
2023-05-20T05:29:11.828Z,3.92
2023-05-20T05:30:16.812Z,3.78
2023-05-20T05:31:19.763Z,3.83
2023-05-20T05:32:22.243Z,4.22
2023-05-20T05:33:24.620Z,3.47
2023-05-20T05:34:27.440Z,4.30
2023-05-20T05:35:29.714Z,3.88
2023-05-20T05:36:33.746Z,3.63
2023-05-20T05:37:36.623Z,4.18
2023-05-20T05:38:39.631Z,4.15
2023-05-20T05:39:42.524Z,3.88
2023-05-20T05:40:44.718Z,4.00
2023-05-20T05:41:47.983Z,3.42
2023-05-20T05:42:50.281Z,3.70
2023-05-20T05:43:52.689Z,4.05
2023-05-20T05:44:55.033Z,4.13
2023-05-20T05:45:57.402Z,3.65
2023-05-20T05:47:00.420Z,3.92
2023-05-20T05:48:02.965Z,4.07
2023-05-20T05:49:05.817Z,4.30
2023-05-20T05:50:10.029Z,4.05
2023-05-20T05:51:12.986Z,3.85
2023-05-20T05:52:15.351Z,4.32
2023-05-20T05:53:18.324Z,4.68
2023-05-20T05:54:23.686Z,3.72
2023-05-20T05:55:26.713Z,3.88
2023-05-20T05:56:30.427Z,4.20
2023-05-20T05:57:33.474Z,4.00
2023-05-20T05:58:37.527Z,4.05
2023-05-20T05:59:41.696Z,4.10
2023-05-20T06:00:44.669Z,4.35
2023-05-20T06:01:46.975Z,4.28
2023-05-20T06:02:50.794Z,4.05
2023-05-20T06:04:05.265Z,4.10
2023-05-20T06:05:08.330Z,3.80
2023-05-20T06:06:10.661Z,3.72
2023-05-20T06:07:13.098Z,3.88
2023-05-20T06:08:15.368Z,4.18
2023-05-20T06:09:17.694Z,4.25
2023-05-20T06:10:20.007Z,4.20
2023-05-20T06:11:23.778Z,4.07
2023-05-20T06:12:27.351Z,4.07
2023-05-20T06:13:29.623Z,4.47
2023-05-20T06:14:32.845Z,4.05
2023-05-20T06:15:36.348Z,4.20
2023-05-20T06:16:39.215Z,3.80
2023-05-20T06:17:42.238Z,4.15
2023-05-20T06:18:50.196Z,4.10
2023-05-20T06:19:52.532Z,4.15
2023-05-20T06:20:56.520Z,4.50
2023-05-20T06:22:00.101Z,3.97
2023-05-20T06:23:02.320Z,5.25
2023-05-20T06:24:13.853Z,4.05
2023-05-20T06:25:16.531Z,4.13
2023-05-20T06:26:20.033Z,4.50
2023-05-20T06:27:22.977Z,4.65
2023-05-20T06:28:25.762Z,4.82
2023-05-20T06:29:29.021Z,4.57
2023-05-20T06:30:31.283Z,4.53
2023-05-20T06:31:33.981Z,4.88
2023-05-20T06:32:36.382Z,4.30
2023-05-20T06:33:38.739Z,4.30
2023-05-20T06:34:45.441Z,4.15
2023-05-20T06:35:48.195Z,4.75
2023-05-20T06:36:50.579Z,4.72
2023-05-20T06:37:52.873Z,4.25
2023-05-20T06:38:55.175Z,4.35
2023-05-20T06:39:57.590Z,4.68
2023-05-20T06:41:01.916Z,4.38
2023-05-20T06:42:05.345Z,4.80
2023-05-20T06:43:11.664Z,4.70
2023-05-20T06:44:38.154Z,4.40
2023-05-20T06:45:50.932Z,4.45
2023-05-20T06:48:17.235Z,4.30
2023-05-20T06:49:20.094Z,4.65
2023-05-20T06:50:22.696Z,4.18
2023-05-20T06:51:25.219Z,4.55
2023-05-20T06:52:27.546Z,4.82
2023-05-20T06:53:30.056Z,4.75
2023-05-20T06:54:35.887Z,4.43
2023-05-20T06:55:38.288Z,4.43
2023-05-20T06:56:41.008Z,4.40
2023-05-20T06:57:44.804Z,4.70
2023-05-20T06:58:48.333Z,4.53
2023-05-20T06:59:51.079Z,4.72
2023-05-20T07:00:54.909Z,4.18
2023-05-20T07:01:57.291Z,4.60
2023-05-20T07:02:59.793Z,4.72
2023-05-20T07:04:02.322Z,4.38
2023-05-20T07:05:05.290Z,5.22
2023-05-20T07:06:07.735Z,4.88
2023-05-20T07:07:10.434Z,5.00
2023-05-20T07:08:13.034Z,5.60
2023-05-20T07:09:15.456Z,4.88
2023-05-20T07:10:17.693Z,4.68
2023-05-20T07:11:20.015Z,4.78
2023-05-20T07:12:22.217Z,5.38
2023-05-20T07:13:25.866Z,5.10
2023-05-20T07:14:28.099Z,4.93
2023-05-20T07:15:30.929Z,5.32
2023-05-20T07:16:34.937Z,4.82
2023-05-20T07:17:37.510Z,5.00
2023-05-20T07:18:40.952Z,4.80
2023-05-20T07:19:43.259Z,4.90
2023-05-20T07:20:45.712Z,4.90
2023-05-20T07:22:00.512Z,5.53
2023-05-20T07:23:27.676Z,5.30
2023-05-20T07:24:31.678Z,5.30
2023-05-20T07:25:34.118Z,4.93
2023-05-20T07:26:36.710Z,5.03
2023-05-20T07:27:39.277Z,5.00
2023-05-20T07:28:45.577Z,5.00
2023-05-20T07:29:47.998Z,5.50
2023-05-20T07:30:50.472Z,5.53
2023-05-20T07:31:56.609Z,4.72
2023-05-20T07:32:59.107Z,4.82
2023-05-20T07:34:01.896Z,5.00
2023-05-20T07:35:04.487Z,5.00
2023-05-20T07:36:09.118Z,5.07
2023-05-20T07:37:14.820Z,4.72
2023-05-20T07:38:18.171Z,5.30
2023-05-20T07:39:22.402Z,4.95
2023-05-20T07:40:24.983Z,5.15
2023-05-20T07:41:27.441Z,4.57
2023-05-20T07:42:30.238Z,5.13
2023-05-20T07:43:35.555Z,4.70
2023-05-20T07:44:39.017Z,5.57
2023-05-20T07:45:41.382Z,5.43
2023-05-20T07:46:43.781Z,5.20
2023-05-20T07:47:47.433Z,5.78
2023-05-20T07:48:49.768Z,5.32
2023-05-20T07:49:52.682Z,5.13
2023-05-20T07:50:59.033Z,5.10
2023-05-20T07:52:03.187Z,5.32
2023-05-20T07:53:06.294Z,5.57
2023-05-20T07:54:09.723Z,5.05
2023-05-20T07:55:12.654Z,5.40
2023-05-20T07:56:16.009Z,5.50
2023-05-20T07:57:18.289Z,5.05
2023-05-20T07:58:20.663Z,4.88
2023-05-20T07:59:22.863Z,4.90
2023-05-20T08:00:26.193Z,4.97
2023-05-20T08:01:28.797Z,4.78
2023-05-20T08:02:31.190Z,4.60
2023-05-20T08:03:33.638Z,4.63
2023-05-20T08:04:48.650Z,4.68
2023-05-20T08:05:50.988Z,4.93
2023-05-20T08:06:54.360Z,4.53
2023-05-20T08:08:05.631Z,5.60
2023-05-20T08:09:19.458Z,5.20
2023-05-20T08:10:25.901Z,4.82
2023-05-20T08:11:28.924Z,4.93
2023-05-20T08:12:32.022Z,5.15
2023-05-20T08:13:34.233Z,4.45
2023-05-20T08:14:37.855Z,5.47
2023-05-20T08:15:40.112Z,4.70
2023-05-20T08:16:42.707Z,5.10
2023-05-20T08:17:45.059Z,4.72
2023-05-20T08:18:47.503Z,4.90
2023-05-20T08:19:49.813Z,5.00
2023-05-20T08:20:52.052Z,5.80
2023-05-20T08:21:55.012Z,4.20
2023-05-20T08:22:57.253Z,5.18
2023-05-20T08:23:59.733Z,5.50
2023-05-20T08:25:02.101Z,5.30
2023-05-20T08:26:04.400Z,5.18
2023-05-20T08:27:08.536Z,4.60
2023-05-20T08:28:11.022Z,4.65
2023-05-20T08:29:13.749Z,4.78
2023-05-20T08:30:16.027Z,5.68
2023-05-20T08:31:19.306Z,4.88
2023-05-20T08:32:21.894Z,4.80
2023-05-20T08:33:25.198Z,5.45
2023-05-20T08:34:27.538Z,5.78
2023-05-20T08:35:29.873Z,5.20
2023-05-20T08:36:32.871Z,4.97
2023-05-20T08:37:35.115Z,5.15
2023-05-20T08:38:37.372Z,5.65
2023-05-20T08:39:39.562Z,5.07
2023-05-20T08:40:42.861Z,4.93
2023-05-20T08:41:46.998Z,5.25
2023-05-20T08:42:52.524Z,5.00
2023-05-20T08:43:55.503Z,4.50
2023-05-20T08:44:59.196Z,4.80
2023-05-20T08:46:05.262Z,5.18
2023-05-20T08:47:10.538Z,5.20
2023-05-20T08:48:12.810Z,4.43
2023-05-20T08:49:15.174Z,4.97
2023-05-20T08:50:17.491Z,5.32
2023-05-20T08:51:23.863Z,4.93
2023-05-20T08:52:26.953Z,4.70
2023-05-20T08:53:29.526Z,4.88
2023-05-20T08:54:57.993Z,5.10
2023-05-20T08:56:02.957Z,5.10
2023-05-20T08:57:05.880Z,4.97
2023-05-20T08:58:08.920Z,5.10
2023-05-20T08:59:11.470Z,5.25
2023-05-20T09:00:17.044Z,4.60
2023-05-20T09:01:23.577Z,4.70
2023-05-20T09:02:25.858Z,5.07
2023-05-20T09:03:28.719Z,5.05
2023-05-20T09:04:31.120Z,4.38
2023-05-20T09:05:34.438Z,5.35
2023-05-20T09:06:44.054Z,4.72
2023-05-20T09:07:46.256Z,5.30
2023-05-20T09:08:51.867Z,5.40
2023-05-20T09:09:54.053Z,5.38
2023-05-20T09:10:56.327Z,5.40
2023-05-20T09:11:59.391Z,5.10
2023-05-20T09:13:03.304Z,5.13
2023-05-20T09:14:05.562Z,5.00
2023-05-20T09:15:08.341Z,4.85
2023-05-20T09:16:11.444Z,5.03
2023-05-20T09:17:13.879Z,6.00
2023-05-20T09:18:16.497Z,5.18
2023-05-20T09:19:24.317Z,4.85
2023-05-20T09:20:27.276Z,5.28
2023-05-20T09:21:30.277Z,4.50
2023-05-20T09:22:32.487Z,4.75
2023-05-20T09:23:38.387Z,5.03
2023-05-20T09:24:41.273Z,4.63
2023-05-20T09:25:43.448Z,4.85
2023-05-20T09:26:45.850Z,4.57
2023-05-20T09:27:48.326Z,4.70
2023-05-20T09:28:51.442Z,5.53
2023-05-20T09:29:53.694Z,5.05
2023-05-20T09:30:59.872Z,5.43
2023-05-20T09:32:03.132Z,4.82
2023-05-20T09:33:05.952Z,5.22
2023-05-20T09:34:08.797Z,4.85
2023-05-20T09:35:14.393Z,5.00
2023-05-20T09:36:16.882Z,4.82
2023-05-20T09:37:21.614Z,5.28
2023-05-20T09:38:23.781Z,4.43
2023-05-20T09:39:30.867Z,4.95
2023-05-20T09:40:33.584Z,5.25
2023-05-20T09:41:39.593Z,4.57
2023-05-20T09:42:52.806Z,4.43
2023-05-20T09:43:55.366Z,4.90
2023-05-20T09:44:58.591Z,5.20
2023-05-20T09:46:02.608Z,4.93
2023-05-20T09:47:08.483Z,5.07
2023-05-20T09:48:12.966Z,5.20
2023-05-20T09:49:16.366Z,5.55
2023-05-20T09:50:21.533Z,4.85
2023-05-20T09:51:24.817Z,5.03
2023-05-20T09:52:27.664Z,5.13
2023-05-20T09:53:30.048Z,5.20
2023-05-20T09:54:33.201Z,5.10
2023-05-20T09:55:36.367Z,5.65
2023-05-20T09:56:41.050Z,5.20
2023-05-20T09:57:43.897Z,5.50
2023-05-20T09:58:47.572Z,5.03
2023-05-20T09:59:51.264Z,4.72
2023-05-20T10:00:54.089Z,5.00
2023-05-20T10:01:56.389Z,5.03
2023-05-20T10:02:59.615Z,4.68
2023-05-20T10:04:05.091Z,5.35
2023-05-20T10:05:15.332Z,4.35
2023-05-20T10:06:23.288Z,4.97
2023-05-20T10:07:47.694Z,4.60
2023-05-20T10:09:05.656Z,4.75
2023-05-20T10:10:24.798Z,4.40
2023-05-20T10:11:46.464Z,4.90
2023-05-20T10:13:22.644Z,4.70
2023-05-20T10:14:43.922Z,5.00
2023-05-20T10:16:30.070Z,4.47
2023-05-20T10:17:52.689Z,4.80
2023-05-20T10:19:21.404Z,4.70
2023-05-20T10:20:23.713Z,4.78
2023-05-20T10:21:25.946Z,5.20
2023-05-20T10:22:29.804Z,4.75
2023-05-20T10:23:32.192Z,5.03
2023-05-20T10:24:44.328Z,4.72
2023-05-20T10:25:52.439Z,4.78
2023-05-20T10:26:55.413Z,4.72
2023-05-20T10:28:07.879Z,4.90
2023-05-20T10:29:20.151Z,4.78
2023-05-20T10:30:22.442Z,4.65
2023-05-20T10:31:25.627Z,4.90
2023-05-20T10:32:33.008Z,5.15
2023-05-20T10:33:42.896Z,4.82
2023-05-20T10:34:48.911Z,5.03
2023-05-20T10:35:52.290Z,4.50
2023-05-20T10:36:54.471Z,4.82
2023-05-20T10:38:09.712Z,4.93
2023-05-20T10:39:17.266Z,4.80
2023-05-20T10:40:20.921Z,4.68
2023-05-20T10:41:27.859Z,4.90
2023-05-20T10:42:32.672Z,4.63
2023-05-20T10:43:34.849Z,4.60
2023-05-20T10:44:47.487Z,4.75
2023-05-20T10:45:55.618Z,4.53
2023-05-20T10:47:21.146Z,4.78
2023-05-20T10:48:28.984Z,4.90
2023-05-20T10:49:35.171Z,5.63
2023-05-20T10:50:38.636Z,5.25
2023-05-20T10:51:41.883Z,5.00
2023-05-20T10:52:44.123Z,5.00
2023-05-20T10:53:46.602Z,5.00
2023-05-20T10:54:57.214Z,4.88
2023-05-20T10:55:59.485Z,5.68
2023-05-20T10:57:09.093Z,5.30
2023-05-20T10:58:11.513Z,5.00
2023-05-20T10:59:14.075Z,5.60
2023-05-20T11:00:16.587Z,4.82
2023-05-20T11:01:19.333Z,4.78
2023-05-20T11:02:28.789Z,4.80
2023-05-20T11:03:33.129Z,5.45
2023-05-20T11:04:35.784Z,4.65
2023-05-20T11:05:39.666Z,5.32
2023-05-20T11:06:51.225Z,5.03
2023-05-20T11:08:04.421Z,4.72
2023-05-20T11:09:10.565Z,4.88
2023-05-20T11:10:12.789Z,4.43
2023-05-20T11:11:15.437Z,4.95
2023-05-20T11:12:17.820Z,4.90
2023-05-20T11:13:20.156Z,4.40
2023-05-20T11:14:22.523Z,4.85
2023-05-20T11:15:24.976Z,4.03
2023-05-20T11:16:27.246Z,4.32
2023-05-20T11:17:29.632Z,4.47
2023-05-20T11:18:32.160Z,4.85
2023-05-20T11:19:37.494Z,4.40
2023-05-20T11:20:39.747Z,5.20
2023-05-20T11:21:45.629Z,4.85
2023-05-20T11:22:50.006Z,4.80
2023-05-20T11:23:52.328Z,4.45
2023-05-20T11:24:54.583Z,4.85
2023-05-20T11:25:57.658Z,4.60
2023-05-20T11:27:01.481Z,5.03
2023-05-20T11:28:03.829Z,4.82
2023-05-20T11:29:06.151Z,4.80
2023-05-20T11:30:08.911Z,4.60
2023-05-20T11:31:11.419Z,4.50
2023-05-20T11:32:13.714Z,4.75
2023-05-20T11:33:17.381Z,5.18
2023-05-20T11:34:23.380Z,5.05
2023-05-20T11:35:30.147Z,5.60
2023-05-20T11:36:32.458Z,4.88
2023-05-20T11:37:36.305Z,4.22
2023-05-20T11:38:41.264Z,5.30
2023-05-20T11:39:43.469Z,4.68
2023-05-20T11:40:53.874Z,4.72
2023-05-20T11:41:57.567Z,4.97
2023-05-20T11:43:01.653Z,4.53
2023-05-20T11:44:03.992Z,4.70
2023-05-20T11:45:06.940Z,4.50
2023-05-20T11:46:09.874Z,4.65
2023-05-20T11:47:12.233Z,4.50
2023-05-20T11:48:17.227Z,4.70
2023-05-20T11:49:19.383Z,4.38
2023-05-20T11:50:21.903Z,4.25
2023-05-20T11:51:27.075Z,4.80
2023-05-20T11:52:29.482Z,4.90
2023-05-20T11:53:32.015Z,4.50
2023-05-20T11:54:36.333Z,4.70
2023-05-20T11:55:55.111Z,4.72
2023-05-20T11:56:58.608Z,4.95
2023-05-20T11:58:02.070Z,4.78
2023-05-20T11:59:05.925Z,4.82
2023-05-20T12:00:10.742Z,4.90
2023-05-20T12:01:21.605Z,4.68
2023-05-20T12:02:24.387Z,4.78
2023-05-20T12:03:27.412Z,4.40
2023-05-20T12:04:29.792Z,5.22
2023-05-20T12:05:32.125Z,5.18
2023-05-20T12:06:34.641Z,5.05
2023-05-20T12:07:36.888Z,4.40
2023-05-20T12:08:39.087Z,4.78
2023-05-20T12:09:41.259Z,4.55
2023-05-20T12:10:45.012Z,4.85
2023-05-20T12:11:47.173Z,4.63
2023-05-20T12:12:49.315Z,5.40
2023-05-20T12:13:51.584Z,5.05
2023-05-20T12:14:53.790Z,4.15
2023-05-20T12:15:56.127Z,4.50
2023-05-20T12:16:58.644Z,4.93
2023-05-20T12:18:01.493Z,4.93
2023-05-20T12:19:04.721Z,4.82
2023-05-20T12:20:07.546Z,4.93
2023-05-20T12:21:09.778Z,5.20
2023-05-20T12:22:11.978Z,4.45
2023-05-20T12:23:14.231Z,4.70
2023-05-20T12:24:16.529Z,4.40
2023-05-20T12:25:20.200Z,4.57
2023-05-20T12:26:22.738Z,4.28
2023-05-20T12:27:24.963Z,4.50
2023-05-20T12:28:27.123Z,4.38
2023-05-20T12:29:29.557Z,5.03
2023-05-20T12:30:31.782Z,4.65
2023-05-20T12:31:35.079Z,4.40
2023-05-20T12:32:38.204Z,4.65
2023-05-20T12:33:40.423Z,4.80
2023-05-20T12:34:42.660Z,4.32
2023-05-20T12:35:46.041Z,4.55
2023-05-20T12:36:48.452Z,4.55
2023-05-20T12:37:50.710Z,4.47
2023-05-20T12:38:52.942Z,4.38
2023-05-20T12:39:55.309Z,4.85
2023-05-20T12:40:57.520Z,4.78
2023-05-20T12:41:59.755Z,4.90
2023-05-20T12:43:03.539Z,5.00
2023-05-20T12:44:06.098Z,4.70
2023-05-20T12:45:09.372Z,4.70
2023-05-20T12:46:11.613Z,4.68
2023-05-20T12:47:14.052Z,4.40
2023-05-20T12:48:16.704Z,4.40
2023-05-20T12:49:18.865Z,5.20
2023-05-20T12:50:21.658Z,4.70
2023-05-20T12:51:23.818Z,4.80
2023-05-20T12:52:26.804Z,4.65
2023-05-20T12:53:29.035Z,4.85
2023-05-20T12:54:31.358Z,4.88
2023-05-20T12:55:33.574Z,4.47
2023-05-20T12:56:35.943Z,4.80
2023-05-20T12:57:38.098Z,4.40
2023-05-20T12:58:40.310Z,4.40
2023-05-20T12:59:42.496Z,4.95
2023-05-20T13:00:44.702Z,4.93
2023-05-20T13:01:47.347Z,4.90
2023-05-20T13:02:49.729Z,4.55
2023-05-20T13:03:53.366Z,4.45
2023-05-20T13:04:55.885Z,4.35
2023-05-20T13:05:59.265Z,4.95
2023-05-20T13:07:02.002Z,4.70
2023-05-20T13:08:04.310Z,4.82
2023-05-20T13:09:06.526Z,4.90
2023-05-20T13:10:10.451Z,5.55
2023-05-20T13:11:12.998Z,4.93
2023-05-20T13:12:15.230Z,5.32
2023-05-20T13:13:21.493Z,5.20
2023-05-20T13:14:23.833Z,4.60
2023-05-20T13:15:26.037Z,5.28
2023-05-20T13:16:28.408Z,4.68
2023-05-20T13:17:30.914Z,4.90
2023-05-20T13:18:33.092Z,4.82
2023-05-20T13:19:35.357Z,4.50
2023-05-20T13:20:37.830Z,4.70
2023-05-20T13:21:40.193Z,5.05
2023-05-20T13:22:42.562Z,4.53
2023-05-20T13:23:44.876Z,4.95
2023-05-20T13:24:47.113Z,4.72
2023-05-20T13:25:49.308Z,4.00
2023-05-20T13:26:51.757Z,4.75
2023-05-20T13:27:53.980Z,4.38
2023-05-20T13:28:56.143Z,4.80
2023-05-20T13:29:58.554Z,4.90
2023-05-20T13:31:02.834Z,5.03
2023-05-20T13:32:05.444Z,4.47
2023-05-20T13:33:07.797Z,4.35
2023-05-20T13:34:10.371Z,4.35
2023-05-20T13:35:13.144Z,4.55
2023-05-20T13:36:15.497Z,4.15
2023-05-20T13:37:17.723Z,5.15
2023-05-20T13:38:19.914Z,4.70
2023-05-20T13:39:22.121Z,4.90
2023-05-20T13:40:24.842Z,4.60
2023-05-20T13:41:27.593Z,4.93
2023-05-20T13:42:29.774Z,4.25
2023-05-20T13:43:33.188Z,5.38
2023-05-20T13:44:35.429Z,4.68
2023-05-20T13:45:37.600Z,4.70
2023-05-20T13:46:39.762Z,4.47
2023-05-20T13:48:43.922Z,4.45
2023-05-20T13:49:46.094Z,4.43
2023-05-20T13:50:48.360Z,4.75
2023-05-20T13:51:50.582Z,4.50
2023-05-20T13:52:52.977Z,4.82
2023-05-20T13:53:55.215Z,4.70
2023-05-20T13:54:57.447Z,4.32
2023-05-20T13:55:59.876Z,4.30
2023-05-20T13:57:04.830Z,4.50
2023-05-20T13:58:09.047Z,4.57
2023-05-20T13:59:11.373Z,4.97
2023-05-20T14:00:14.052Z,4.38
2023-05-20T14:01:16.379Z,4.68
2023-05-20T14:02:18.722Z,4.45
2023-05-20T14:03:21.053Z,4.25
2023-05-20T14:04:25.761Z,4.35
2023-05-20T14:05:28.011Z,4.60
2023-05-20T14:06:31.861Z,5.00
2023-05-20T14:07:34.031Z,4.65
2023-05-20T14:08:36.304Z,4.57
2023-05-20T14:09:38.883Z,4.47
2023-05-20T14:10:41.062Z,4.72
2023-05-20T14:11:43.340Z,4.93
2023-05-20T14:12:48.056Z,4.03
2023-05-20T14:13:50.396Z,4.65
2023-05-20T14:14:52.643Z,4.32